Time;durP1;ratioP1;P1;durP2;ratioP2;P2;SDS_P1;SDS_P2;PMS_P1;PMS_P2;Temp;Humidity;BMP_temperature;BMP_pressure;BME280_temperature;BME280_humidity;BME280_pressure;Samples;Min_cycle;Max_cycle;Signal;HPM_P1;HPM_P2
2023/12/09 00:01:41;;;;;;;24.58;11.27;;;;;;;;;;5029579;28;20029;-79
2023/12/09 00:04:07;;;;;;;20.98;11.18;;;;;;;;;;5029544;28;20404;-78
2023/12/09 00:06:32;;;;;;;23.30;10.80;;;;;;;;;;5047506;28;20025;-78
2023/12/09 00:08:57;;;;;;;23.30;10.25;;;;;;;;;;5029348;28;20398;-79
2023/12/09 00:11:22;;;;;;;22.75;11.30;;;;;;;;;;5048661;28;20025;-80
2023/12/09 00:13:48;;;;;;;21.30;10.82;;;;;;;;;;5030591;28;20096;-80
2023/12/09 00:16:13;;;;;;;17.90;9.27;;;;;;;;;;5045697;28;20350;-78
2023/12/09 00:18:39;;;;;;;21.35;10.57;;;;;;;;;;5030422;28;20425;-79
2023/12/09 00:21:04;;;;;;;21.48;11.10;;;;;;;;;;5048257;28;20029;-79
2023/12/09 00:23:29;;;;;;;21.80;10.95;;;;;;;;;;5046272;28;20556;-79
2023/12/09 00:25:55;;;;;;;21.60;10.82;;;;;;;;;;5047892;28;20029;-80
2023/12/09 00:28:20;;;;;;;20.88;10.88;;;;;;;;;;5029853;28;20021;-79
2023/12/09 00:30:45;;;;;;;20.55;10.25;;;;;;;;;;5046789;28;20028;-79
2023/12/09 00:33:10;;;;;;;22.33;10.45;;;;;;;;;;5045568;28;20038;-79
2023/12/09 00:35:35;;;;;;;21.40;10.38;;;;;;;;;;5046261;28;20032;-79
2023/12/09 00:38:01;;;;;;;21.73;9.93;;;;;;;;;;5040328;28;20029;-79
2023/12/09 00:40:26;;;;;;;21.15;10.52;;;;;;;;;;5037853;28;20350;-79
2023/12/09 00:42:51;;;;;;;19.77;10.80;;;;;;;;;;5037658;28;20060;-80
2023/12/09 00:45:16;;;;;;;24.33;10.80;;;;;;;;;;5019919;28;20022;-78
2023/12/09 00:47:41;;;;;;;22.20;11.27;;;;;;;;;;5020028;28;20036;-78
2023/12/09 00:50:07;;;;;;;21.65;10.30;;;;;;;;;;5019347;28;20026;-78
2023/12/09 00:52:33;;;;;;;21.70;9.95;;;;;;;;;;5038521;28;20033;-78
2023/12/09 00:55:00;;;;;;;21.92;10.95;;;;;;;;;;5039633;28;20025;-78
2023/12/09 00:57:25;;;;;;;21.50;11.02;;;;;;;;;;5041654;28;20029;-78
2023/12/09 00:59:50;;;;;;;23.88;11.23;;;;;;;;;;5042371;28;20077;-79
2023/12/09 01:02:15;;;;;;;21.10;10.82;;;;;;;;;;5042929;28;20021;-78
2023/12/09 01:04:40;;;;;;;19.38;9.90;;;;;;;;;;5043626;28;20082;-79
2023/12/09 01:07:06;;;;;;;25.02;11.27;;;;;;;;;;5044159;28;20045;-80
2023/12/09 01:09:31;;;;;;;21.67;10.43;;;;;;;;;;5027200;28;20041;-79
2023/12/09 01:11:56;;;;;;;22.70;10.23;;;;;;;;;;5028017;28;20030;-79
2023/12/09 01:14:22;;;;;;;25.07;10.80;;;;;;;;;;5045287;28;20029;-80
2023/12/09 01:16:47;;;;;;;22.17;10.52;;;;;;;;;;5045386;28;20281;-80
2023/12/09 01:19:12;;;;;;;22.05;10.68;;;;;;;;;;5047591;28;20056;-80
2023/12/09 01:21:38;;;;;;;20.85;10.48;;;;;;;;;;5048629;28;20029;-80
2023/12/09 01:24:04;;;;;;;24.00;11.55;;;;;;;;;;5029993;28;20021;-80
2023/12/09 01:26:30;;;;;;;20.83;10.82;;;;;;;;;;5030414;28;20048;-79
2023/12/09 01:28:55;;;;;;;21.67;10.82;;;;;;;;;;5030560;28;20025;-79
2023/12/09 01:31:20;;;;;;;22.75;10.32;;;;;;;;;;5048500;28;20033;-77
2023/12/09 01:33:46;;;;;;;20.83;10.82;;;;;;;;;;5049073;28;20036;-80
2023/12/09 01:36:11;;;;;;;28.23;11.85;;;;;;;;;;5049510;28;20025;-80
2023/12/09 01:38:36;;;;;;;19.50;10.70;;;;;;;;;;5049100;28;20081;-80
2023/12/09 01:41:01;;;;;;;24.55;10.57;;;;;;;;;;5048158;28;20047;-80
2023/12/09 01:43:27;;;;;;;25.63;10.85;;;;;;;;;;5048142;28;20033;-80
2023/12/09 01:45:54;;;;;;;24.45;10.65;;;;;;;;;;5031357;28;20101;-80
2023/12/09 01:48:21;;;;;;;22.20;10.75;;;;;;;;;;5031030;28;20025;-79
2023/12/09 01:50:47;;;;;;;23.17;11.35;;;;;;;;;;5048290;28;20451;-79
2023/12/09 01:53:12;;;;;;;20.00;10.65;;;;;;;;;;5048431;28;20079;-79
2023/12/09 01:55:40;;;;;;;21.63;10.80;;;;;;;;;;5049187;28;20025;-78
2023/12/09 01:58:05;;;;;;;21.98;10.60;;;;;;;;;;5031979;28;20464;-79
2023/12/09 02:00:31;;;;;;;22.77;10.57;;;;;;;;;;5032258;28;20029;-79
2023/12/09 02:02:56;;;;;;;21.60;10.77;;;;;;;;;;5049026;28;20100;-79
2023/12/09 02:05:21;;;;;;;22.30;10.93;;;;;;;;;;5049021;28;20029;-79
2023/12/09 02:07:47;;;;;;;24.73;11.25;;;;;;;;;;5031432;28;20018;-79
2023/12/09 02:10:12;;;;;;;21.00;10.70;;;;;;;;;;5049164;28;20049;-80
2023/12/09 02:12:45;;;;;;;24.15;11.20;;;;;;;;;;5049271;28;20416;-79
2023/12/09 02:15:18;;;;;;;22.55;10.80;;;;;;;;;;5028732;28;20029;-80
2023/12/09 02:18:00;;;;;;;21.75;10.60;;;;;;;;;;5035912;28;20021;-80
2023/12/09 02:20:27;;;;;;;22.10;10.25;;;;;;;;;;5020383;28;20072;-78
2023/12/09 02:23:11;;;;;;;23.38;11.18;;;;;;;;;;5021986;28;20394;-79
2023/12/09 02:25:38;;;;;;;21.63;10.57;;;;;;;;;;5018996;28;20021;-79
2023/12/09 02:28:27;;;;;;;22.33;10.95;;;;;;;;;;5037710;28;20042;-78
2023/12/09 02:31:11;;;;;;;22.17;10.65;;;;;;;;;;5038968;28;20029;-79
2023/12/09 02:33:37;;;;;;;23.50;10.80;;;;;;;;;;5038176;28;20159;-79
2023/12/09 02:36:03;;;;;;;25.75;11.48;;;;;;;;;;5037820;28;20029;-78
2023/12/09 02:38:30;;;;;;;24.00;11.07;;;;;;;;;;5021659;28;20037;-80
2023/12/09 02:40:57;;;;;;;24.77;11.02;;;;;;;;;;5041836;28;20116;-79
2023/12/09 02:43:22;;;;;;;22.90;10.00;;;;;;;;;;5043364;28;20034;-79
2023/12/09 02:45:47;;;;;;;26.50;11.52;;;;;;;;;;5025513;28;20025;-79
2023/12/09 02:48:12;;;;;;;21.98;9.88;;;;;;;;;;5025938;28;20522;-78
2023/12/09 02:50:38;;;;;;;23.50;10.90;;;;;;;;;;5026825;28;20049;-79
2023/12/09 02:53:03;;;;;;;21.50;10.40;;;;;;;;;;5045012;28;20052;-80
2023/12/09 02:55:28;;;;;;;23.48;11.82;;;;;;;;;;5045924;28;20026;-79
2023/12/09 02:57:54;;;;;;;23.60;11.18;;;;;;;;;;5045381;28;20021;-79
2023/12/09 03:00:19;;;;;;;25.20;11.88;;;;;;;;;;5046789;28;20055;-79
2023/12/09 03:02:44;;;;;;;24.70;11.65;;;;;;;;;;5055622;28;20029;-79
2023/12/09 03:05:09;;;;;;;27.75;12.13;;;;;;;;;;5056500;28;20033;-80
2023/12/09 03:07:35;;;;;;;27.98;12.05;;;;;;;;;;5052800;28;20021;-80
2023/12/09 03:10:00;;;;;;;22.83;10.75;;;;;;;;;;5047318;28;20059;-78
2023/12/09 03:12:25;;;;;;;23.73;11.05;;;;;;;;;;5047531;28;20029;-79
2023/12/09 03:14:50;;;;;;;23.95;10.75;;;;;;;;;;5030190;28;20029;-80
2023/12/09 03:17:16;;;;;;;20.77;11.02;;;;;;;;;;5048102;28;20025;-79
2023/12/09 03:19:41;;;;;;;22.10;10.90;;;;;;;;;;5048485;28;20125;-79
2023/12/09 03:22:08;;;;;;;26.02;11.43;;;;;;;;;;5030255;28;20035;-79
2023/12/09 03:24:33;;;;;;;22.27;11.25;;;;;;;;;;5048491;28;20025;-79
2023/12/09 03:26:58;;;;;;;24.98;11.82;;;;;;;;;;5031428;28;20033;-79
2023/12/09 03:29:23;;;;;;;23.88;11.30;;;;;;;;;;5048184;28;20026;-79
2023/12/09 03:31:49;;;;;;;25.93;11.50;;;;;;;;;;5030449;28;20029;-79
2023/12/09 03:34:16;;;;;;;28.00;11.50;;;;;;;;;;5048707;28;20279;-78
2023/12/09 03:36:42;;;;;;;24.27;11.10;;;;;;;;;;5049164;28;20029;-79
2023/12/09 03:39:07;;;;;;;24.77;11.73;;;;;;;;;;5048747;28;20025;-79
2023/12/09 03:41:33;;;;;;;23.85;10.85;;;;;;;;;;5029990;28;20021;-79
2023/12/09 03:43:59;;;;;;;27.60;12.43;;;;;;;;;;5030659;28;20085;-79
2023/12/09 03:46:24;;;;;;;24.02;10.88;;;;;;;;;;5031042;28;20026;-79
2023/12/09 03:48:50;;;;;;;22.77;11.10;;;;;;;;;;5047649;28;20052;-81
2023/12/09 03:51:15;;;;;;;25.25;12.40;;;;;;;;;;5048390;28;20029;-79
2023/12/09 03:53:41;;;;;;;23.52;11.10;;;;;;;;;;5048614;28;20033;-79
2023/12/09 03:56:07;;;;;;;28.38;11.05;;;;;;;;;;5034163;28;20021;-78
2023/12/09 03:58:33;;;;;;;23.40;10.70;;;;;;;;;;5052251;28;20036;-79
2023/12/09 04:00:58;;;;;;;24.27;11.10;;;;;;;;;;5035038;28;20060;-79
2023/12/09 04:03:23;;;;;;;24.52;10.98;;;;;;;;;;5051853;28;20021;-79
2023/12/09 04:05:48;;;;;;;21.35;10.77;;;;;;;;;;5033938;28;20026;-78
2023/12/09 04:08:14;;;;;;;27.33;11.82;;;;;;;;;;5049934;28;20059;-78
2023/12/09 04:10:39;;;;;;;23.15;10.95;;;;;;;;;;5051530;28;20034;-78
2023/12/09 04:13:04;;;;;;;23.20;11.03;;;;;;;;;;5052189;28;20032;-79
2023/12/09 04:15:29;;;;;;;23.25;11.00;;;;;;;;;;5034402;28;20316;-79
2023/12/09 04:17:55;;;;;;;25.00;12.18;;;;;;;;;;5051855;28;20036;-79
2023/12/09 04:20:20;;;;;;;21.23;10.88;;;;;;;;;;5052392;28;20036;-79
2023/12/09 04:22:47;;;;;;;22.20;10.10;;;;;;;;;;5050926;28;20076;-79
2023/12/09 04:25:12;;;;;;;22.55;11.35;;;;;;;;;;5033116;28;20029;-78
2023/12/09 04:27:37;;;;;;;23.92;11.48;;;;;;;;;;5049543;28;20592;-78
2023/12/09 04:30:04;;;;;;;25.02;11.90;;;;;;;;;;5050230;28;20022;-79
2023/12/09 04:32:30;;;;;;;21.52;10.63;;;;;;;;;;5050671;28;20049;-78
2023/12/09 04:34:56;;;;;;;28.85;12.38;;;;;;;;;;5033028;28;20322;-79
2023/12/09 04:37:22;;;;;;;23.67;11.57;;;;;;;;;;5032513;28;20048;-79
2023/12/09 04:39:47;;;;;;;22.15;10.43;;;;;;;;;;5031957;28;20473;-79
2023/12/09 04:42:12;;;;;;;23.90;11.05;;;;;;;;;;5050020;28;20037;-78
2023/12/09 04:44:38;;;;;;;23.63;11.40;;;;;;;;;;5032227;28;20059;-79
2023/12/09 04:47:03;;;;;;;25.80;12.13;;;;;;;;;;5050053;28;20258;-78
2023/12/09 04:49:28;;;;;;;21.73;10.93;;;;;;;;;;5050122;28;20349;-78
2023/12/09 04:51:54;;;;;;;24.30;11.27;;;;;;;;;;5050172;28;20029;-78
2023/12/09 04:54:19;;;;;;;25.70;10.93;;;;;;;;;;5050424;28;20284;-78
2023/12/09 04:56:44;;;;;;;24.23;11.07;;;;;;;;;;5050127;28;20029;-79
2023/12/09 04:59:09;;;;;;;22.83;11.83;;;;;;;;;;5050713;28;20017;-78
2023/12/09 05:01:35;;;;;;;22.00;11.53;;;;;;;;;;5049918;28;20621;-78
2023/12/09 05:04:00;;;;;;;24.85;11.50;;;;;;;;;;5049278;28;20322;-78
2023/12/09 05:06:25;;;;;;;23.80;11.73;;;;;;;;;;5049113;28;20049;-78
2023/12/09 05:08:51;;;;;;;22.97;10.83;;;;;;;;;;5050162;28;20025;-78
2023/12/09 05:11:16;;;;;;;22.67;11.93;;;;;;;;;;5049717;28;20763;-78
2023/12/09 05:13:41;;;;;;;26.03;12.00;;;;;;;;;;5029238;28;20334;-79
2023/12/09 05:16:06;;;;;;;24.77;11.88;;;;;;;;;;5048458;28;20254;-79
2023/12/09 05:18:33;;;;;;;25.33;11.55;;;;;;;;;;5031808;28;20492;-80
2023/12/09 05:20:59;;;;;;;25.55;11.25;;;;;;;;;;5050221;28;20093;-80
2023/12/09 05:23:24;;;;;;;27.13;11.93;;;;;;;;;;5031236;28;20021;-80
2023/12/09 05:25:49;;;;;;;21.43;10.50;;;;;;;;;;5031891;28;20064;-80
2023/12/09 05:28:15;;;;;;;25.60;11.82;;;;;;;;;;5049463;28;20259;-80
2023/12/09 05:30:41;;;;;;;29.73;12.35;;;;;;;;;;5047919;28;20033;-80
2023/12/09 05:33:07;;;;;;;25.88;11.52;;;;;;;;;;5048755;28;20072;-79
2023/12/09 05:35:32;;;;;;;26.15;12.27;;;;;;;;;;5049711;28;20051;-79
2023/12/09 05:37:57;;;;;;;28.63;12.03;;;;;;;;;;5031487;28;20036;-79
2023/12/09 05:40:22;;;;;;;24.35;11.52;;;;;;;;;;5049080;28;20258;-80
2023/12/09 05:42:48;;;;;;;26.02;11.38;;;;;;;;;;5032425;28;20029;-80
2023/12/09 05:45:13;;;;;;;21.83;10.85;;;;;;;;;;5030532;28;20028;-79
2023/12/09 05:47:38;;;;;;;27.42;11.32;;;;;;;;;;5032383;28;20476;-79
2023/12/09 05:50:04;;;;;;;27.08;11.98;;;;;;;;;;5049207;28;20025;-79
2023/12/09 05:52:29;;;;;;;27.77;12.02;;;;;;;;;;5049156;28;20025;-79
2023/12/09 05:54:54;;;;;;;25.00;11.23;;;;;;;;;;5049512;28;20026;-80
2023/12/09 05:57:20;;;;;;;23.63;11.33;;;;;;;;;;5032365;28;20262;-80
2023/12/09 05:59:45;;;;;;;29.42;12.30;;;;;;;;;;5030677;28;20271;-78
2023/12/09 06:02:10;;;;;;;25.50;12.10;;;;;;;;;;5044745;28;20436;-78
2023/12/09 06:04:35;;;;;;;24.00;11.15;;;;;;;;;;5042970;28;20408;-80
2023/12/09 06:07:00;;;;;;;22.10;11.70;;;;;;;;;;5040681;28;20369;-77
2023/12/09 06:09:26;;;;;;;27.77;12.20;;;;;;;;;;5024237;28;20625;-80
2023/12/09 06:11:51;;;;;;;27.27;11.97;;;;;;;;;;5049183;28;20029;-79
2023/12/09 06:14:16;;;;;;;22.83;11.68;;;;;;;;;;5031281;28;20279;-79
2023/12/09 06:16:41;;;;;;;23.02;11.57;;;;;;;;;;5048885;28;20048;-79
2023/12/09 06:19:07;;;;;;;26.02;11.25;;;;;;;;;;5049407;28;20030;-79
2023/12/09 06:21:32;;;;;;;23.88;12.30;;;;;;;;;;5031011;28;20112;-79
2023/12/09 06:23:57;;;;;;;24.30;11.20;;;;;;;;;;5047351;28;20044;-79
2023/12/09 06:26:22;;;;;;;29.30;12.63;;;;;;;;;;5046083;28;20047;-79
2023/12/09 06:28:48;;;;;;;27.98;11.98;;;;;;;;;;5028612;28;20499;-80
2023/12/09 06:31:13;;;;;;;28.02;11.70;;;;;;;;;;5047247;28;20033;-80
2023/12/09 06:33:38;;;;;;;23.42;11.48;;;;;;;;;;5048596;28;20036;-80
2023/12/09 06:36:05;;;;;;;24.02;11.35;;;;;;;;;;5048999;28;20029;-81
2023/12/09 06:38:32;;;;;;;24.98;10.00;;;;;;;;;;5030806;28;20079;-80
2023/12/09 06:40:57;;;;;;;24.20;10.95;;;;;;;;;;5048935;28;20024;-79
2023/12/09 06:43:22;;;;;;;23.03;11.13;;;;;;;;;;5036736;28;20005;-80
2023/12/09 06:45:47;;;;;;;18.48;8.52;;;;;;;;;;5055834;28;20322;-77
2023/12/09 06:48:13;;;;;;;23.53;10.67;;;;;;;;;;5036087;28;20036;-78
2023/12/09 06:50:38;;;;;;;24.02;11.38;;;;;;;;;;5049030;28;20263;-80
2023/12/09 06:53:04;;;;;;;25.17;10.85;;;;;;;;;;5031151;28;20026;-79
2023/12/09 06:55:29;;;;;;;28.27;11.77;;;;;;;;;;5031238;28;20052;-79
2023/12/09 06:57:54;;;;;;;24.65;11.27;;;;;;;;;;5049850;28;20029;-79
2023/12/09 07:00:19;;;;;;;22.92;10.98;;;;;;;;;;5031555;28;20029;-78
2023/12/09 07:02:45;;;;;;;25.50;11.30;;;;;;;;;;5049488;28;20056;-79
2023/12/09 07:05:13;;;;;;;24.33;11.18;;;;;;;;;;5048956;28;20030;-79
2023/12/09 07:07:40;;;;;;;27.05;11.38;;;;;;;;;;5030347;28;20021;-79
2023/12/09 07:10:06;;;;;;;25.92;11.75;;;;;;;;;;5037037;28;20481;-80
2023/12/09 07:12:31;;;;;;;23.05;10.68;;;;;;;;;;5038185;28;20036;-78
2023/12/09 07:14:59;;;;;;;26.73;10.82;;;;;;;;;;5044154;28;20037;-78
2023/12/09 07:17:24;;;;;;;27.67;11.50;;;;;;;;;;5026932;28;20483;-79
2023/12/09 07:19:52;;;;;;;28.25;10.98;;;;;;;;;;5043371;28;20033;-79
2023/12/09 07:22:17;;;;;;;27.17;11.63;;;;;;;;;;5047810;28;20025;-79
2023/12/09 07:24:42;;;;;;;25.10;11.32;;;;;;;;;;5030430;28;20033;-81
2023/12/09 07:27:08;;;;;;;24.63;11.45;;;;;;;;;;5043439;28;20032;-79
2023/12/09 07:29:33;;;;;;;28.30;12.00;;;;;;;;;;5022634;28;20029;-79
2023/12/09 07:31:58;;;;;;;22.20;10.43;;;;;;;;;;5042960;28;20277;-80
2023/12/09 07:34:24;;;;;;;24.10;11.32;;;;;;;;;;5043772;28;20290;-80
2023/12/09 07:36:49;;;;;;;24.40;11.95;;;;;;;;;;5047264;28;20071;-79
2023/12/09 07:39:14;;;;;;;29.20;11.17;;;;;;;;;;5049612;28;20025;-79
2023/12/09 07:41:41;;;;;;;24.27;10.88;;;;;;;;;;5050572;28;20262;-80
2023/12/09 07:44:06;;;;;;;25.15;11.10;;;;;;;;;;5033233;28;20023;-80
2023/12/09 07:46:32;;;;;;;26.45;11.20;;;;;;;;;;5048321;28;20033;-80
2023/12/09 07:48:57;;;;;;;22.63;9.90;;;;;;;;;;5032642;28;20092;-80
2023/12/09 07:51:23;;;;;;;22.65;10.70;;;;;;;;;;5051089;28;20026;-79
2023/12/09 07:53:48;;;;;;;24.45;11.73;;;;;;;;;;5033283;28;20056;-79
2023/12/09 07:56:13;;;;;;;25.45;10.77;;;;;;;;;;5050138;28;20028;-78
2023/12/09 07:58:38;;;;;;;25.47;11.03;;;;;;;;;;5033539;28;20034;-79
2023/12/09 08:01:04;;;;;;;26.50;11.23;;;;;;;;;;5050922;28;20317;-79
2023/12/09 08:03:31;;;;;;;22.88;10.07;;;;;;;;;;5031928;28;20013;-79
2023/12/09 08:05:56;;;;;;;22.13;10.80;;;;;;;;;;5049250;28;20030;-80
2023/12/09 08:08:21;;;;;;;23.65;10.57;;;;;;;;;;5050089;28;20104;-79
2023/12/09 08:10:46;;;;;;;21.10;9.93;;;;;;;;;;5051124;28;20073;-79
2023/12/09 08:13:12;;;;;;;22.20;10.67;;;;;;;;;;5051500;28;20021;-79
2023/12/09 08:15:37;;;;;;;26.85;11.18;;;;;;;;;;5051392;28;20262;-79
2023/12/09 08:18:03;;;;;;;22.17;9.98;;;;;;;;;;5051968;28;20107;-79
2023/12/09 08:20:28;;;;;;;23.63;10.60;;;;;;;;;;5052293;28;20021;-78
2023/12/09 08:22:54;;;;;;;23.02;9.93;;;;;;;;;;5051615;28;20020;-78
2023/12/09 08:25:19;;;;;;;24.98;10.85;;;;;;;;;;5033345;28;20044;-78
2023/12/09 08:27:47;;;;;;;21.35;10.63;;;;;;;;;;5051650;28;20029;-78
2023/12/09 08:30:12;;;;;;;25.58;11.00;;;;;;;;;;5033411;28;20021;-79
2023/12/09 08:32:39;;;;;;;24.42;10.80;;;;;;;;;;5047790;28;20026;-79
2023/12/09 08:35:06;;;;;;;26.60;10.88;;;;;;;;;;5033226;28;20036;-78
2023/12/09 08:37:31;;;;;;;26.05;11.05;;;;;;;;;;5050123;28;20140;-79
2023/12/09 08:40:00;;;;;;;22.73;10.75;;;;;;;;;;5051104;28;20126;-79
2023/12/09 08:42:25;;;;;;;27.33;11.15;;;;;;;;;;5051096;28;20029;-79
2023/12/09 08:44:50;;;;;;;22.67;10.77;;;;;;;;;;5033836;28;20449;-78
2023/12/09 08:47:15;;;;;;;22.13;10.63;;;;;;;;;;5051221;28;20455;-79
2023/12/09 08:49:41;;;;;;;26.73;12.20;;;;;;;;;;5050818;28;20641;-80
2023/12/09 08:52:06;;;;;;;23.52;9.90;;;;;;;;;;5050772;28;20029;-79
2023/12/09 08:54:32;;;;;;;23.08;11.27;;;;;;;;;;5033260;28;20021;-79
2023/12/09 08:56:57;;;;;;;23.70;11.20;;;;;;;;;;5049955;28;20504;-79
2023/12/09 08:59:22;;;;;;;21.93;10.33;;;;;;;;;;5050138;28;20022;-79
2023/12/09 09:01:47;;;;;;;23.67;10.20;;;;;;;;;;5047598;28;20872;-79
2023/12/09 09:04:12;;;;;;;23.70;11.13;;;;;;;;;;5047115;28;20623;-78
2023/12/09 09:06:38;;;;;;;25.77;11.63;;;;;;;;;;5050194;28;20025;-80
2023/12/09 09:09:04;;;;;;;23.20;10.80;;;;;;;;;;5049621;28;20040;-79
2023/12/09 09:11:29;;;;;;;26.25;11.50;;;;;;;;;;5049946;28;20022;-79
2023/12/09 09:13:54;;;;;;;26.13;11.43;;;;;;;;;;5049440;28;20469;-79
2023/12/09 09:16:19;;;;;;;28.27;11.48;;;;;;;;;;5050327;28;20025;-78
2023/12/09 09:18:44;;;;;;;23.45;11.23;;;;;;;;;;5049827;28;20127;-79
2023/12/09 09:21:10;;;;;;;27.73;12.10;;;;;;;;;;5049947;28;20033;-79
2023/12/09 09:23:35;;;;;;;27.23;11.63;;;;;;;;;;5048954;28;20257;-81
2023/12/09 09:26:01;;;;;;;22.58;10.25;;;;;;;;;;5031443;28;20033;-78
2023/12/09 09:28:26;;;;;;;23.23;10.48;;;;;;;;;;5048791;28;20025;-79
2023/12/09 09:30:51;;;;;;;26.07;11.43;;;;;;;;;;5049230;28;20416;-80
2023/12/09 09:33:17;;;;;;;25.88;11.00;;;;;;;;;;5033187;28;20279;-79
2023/12/09 09:35:43;;;;;;;28.30;11.60;;;;;;;;;;5033155;28;20029;-79
2023/12/09 09:38:11;;;;;;;26.98;11.02;;;;;;;;;;5033046;28;20496;-79
2023/12/09 09:40:36;;;;;;;28.35;11.65;;;;;;;;;;5050303;28;20085;-78
2023/12/09 09:43:08;;;;;;;27.53;11.80;;;;;;;;;;5030982;28;20048;-77
2023/12/09 09:45:35;;;;;;;27.60;11.23;;;;;;;;;;5047065;28;20298;-78
2023/12/09 09:48:07;;;;;;;25.83;11.48;;;;;;;;;;5030214;28;20128;-77
2023/12/09 09:50:40;;;;;;;30.38;12.32;;;;;;;;;;5030514;28;20025;-77
2023/12/09 09:53:07;;;;;;;24.80;11.20;;;;;;;;;;5027786;28;20025;-77
2023/12/09 09:55:35;;;;;;;23.08;10.73;;;;;;;;;;5048750;28;20087;-77
2023/12/09 09:58:01;;;;;;;27.90;12.35;;;;;;;;;;5042794;28;20029;-79
2023/12/09 10:00:28;;;;;;;28.52;12.23;;;;;;;;;;5027387;28;20026;-78
2023/12/09 10:02:53;;;;;;;28.20;12.68;;;;;;;;;;5048659;28;20017;-78
2023/12/09 10:05:20;;;;;;;25.98;11.90;;;;;;;;;;5024090;28;20048;-77
2023/12/09 10:07:46;;;;;;;28.15;12.75;;;;;;;;;;5034439;28;20021;-77
2023/12/09 10:10:13;;;;;;;26.42;11.38;;;;;;;;;;5030563;28;20034;-78
2023/12/09 10:12:39;;;;;;;27.10;12.55;;;;;;;;;;5044150;28;20035;-79
2023/12/09 10:15:05;;;;;;;26.80;11.65;;;;;;;;;;5028970;28;20153;-77
2023/12/09 10:17:31;;;;;;;27.15;12.32;;;;;;;;;;5025353;28;20036;-77
2023/12/09 10:20:00;;;;;;;28.58;12.10;;;;;;;;;;5040539;28;20022;-75
2023/12/09 10:22:25;;;;;;;27.95;12.13;;;;;;;;;;5033716;28;20060;-76
2023/12/09 10:24:52;;;;;;;24.05;11.50;;;;;;;;;;5019290;28;20033;-75
2023/12/09 10:27:24;;;;;;;27.58;11.68;;;;;;;;;;5015824;28;20028;-75
2023/12/09 10:29:54;;;;;;;24.60;11.52;;;;;;;;;;5033236;28;20037;-75
2023/12/09 10:32:24;;;;;;;24.33;11.77;;;;;;;;;;5033121;28;20108;-75
2023/12/09 10:34:50;;;;;;;22.63;10.15;;;;;;;;;;5033689;28;20018;-76
2023/12/09 10:37:16;;;;;;;26.70;11.73;;;;;;;;;;5033553;28;20058;-74
2023/12/09 10:39:43;;;;;;;26.40;11.60;;;;;;;;;;5033284;28;20116;-75
2023/12/09 10:42:09;;;;;;;24.00;11.48;;;;;;;;;;5041596;28;20033;-80
2023/12/09 10:44:34;;;;;;;26.35;12.07;;;;;;;;;;5031799;28;20021;-78
2023/12/09 10:47:03;;;;;;;26.77;11.70;;;;;;;;;;5030343;28;20036;-79
2023/12/09 10:49:29;;;;;;;25.13;11.60;;;;;;;;;;5048199;28;20507;-79
2023/12/09 10:51:54;;;;;;;29.05;11.98;;;;;;;;;;5031765;28;20021;-78
2023/12/09 10:54:20;;;;;;;25.30;11.65;;;;;;;;;;5049365;28;20021;-79
2023/12/09 10:56:45;;;;;;;26.80;11.27;;;;;;;;;;5029892;28;20048;-80
2023/12/09 10:59:13;;;;;;;25.83;10.82;;;;;;;;;;5032034;28;20017;-78
2023/12/09 11:01:39;;;;;;;28.02;11.82;;;;;;;;;;5045994;28;20029;-78
2023/12/09 11:04:05;;;;;;;26.33;11.57;;;;;;;;;;5047465;28;20085;-78
2023/12/09 11:06:58;;;;;;;29.42;11.85;;;;;;;;;;5051735;28;20092;-81
2023/12/09 11:09:24;;;;;;;24.98;10.35;;;;;;;;;;5024094;28;20062;-78
2023/12/09 11:11:50;;;;;;;26.77;10.85;;;;;;;;;;5028351;28;20028;-77
2023/12/09 11:14:16;;;;;;;24.02;10.70;;;;;;;;;;5043038;28;20029;-77
2023/12/09 11:16:43;;;;;;;23.05;11.57;;;;;;;;;;5037894;28;20021;-77
2023/12/09 11:19:15;;;;;;;26.83;10.75;;;;;;;;;;5038472;28;20067;-76
2023/12/09 11:21:44;;;;;;;24.73;11.30;;;;;;;;;;5038070;28;20079;-77
2023/12/09 11:24:10;;;;;;;21.42;10.02;;;;;;;;;;5019948;28;20440;-77
2023/12/09 11:26:36;;;;;;;22.05;10.25;;;;;;;;;;5038129;28;20117;-77
2023/12/09 11:29:04;;;;;;;23.42;10.95;;;;;;;;;;5038419;28;20057;-77
2023/12/09 11:31:32;;;;;;;22.92;9.77;;;;;;;;;;5038604;28;20037;-76
2023/12/09 11:33:59;;;;;;;22.02;9.25;;;;;;;;;;5037948;28;20028;-76
2023/12/09 11:36:26;;;;;;;21.13;9.30;;;;;;;;;;5037874;28;20057;-77
2023/12/09 11:38:51;;;;;;;27.90;10.07;;;;;;;;;;5037438;28;20040;-77
2023/12/09 11:41:17;;;;;;;20.58;9.52;;;;;;;;;;5038226;28;20384;-77
2023/12/09 11:43:43;;;;;;;20.85;9.70;;;;;;;;;;5037427;28;20024;-78
2023/12/09 11:46:08;;;;;;;20.98;9.02;;;;;;;;;;5037430;28;20025;-77
2023/12/09 11:48:33;;;;;;;23.27;9.70;;;;;;;;;;5037612;28;20101;-75
2023/12/09 11:51:03;;;;;;;22.10;9.45;;;;;;;;;;5036113;28;20477;-76
2023/12/09 11:53:28;;;;;;;20.05;9.43;;;;;;;;;;5037053;28;20029;-77
2023/12/09 11:55:53;;;;;;;19.33;9.43;;;;;;;;;;5037322;28;20543;-77
2023/12/09 11:58:19;;;;;;;20.55;9.30;;;;;;;;;;5019621;28;20737;-77
2023/12/09 12:00:44;;;;;;;20.85;8.52;;;;;;;;;;5038274;28;20060;-77
2023/12/09 12:03:09;;;;;;;17.87;8.40;;;;;;;;;;5037969;28;20025;-77
2023/12/09 12:05:36;;;;;;;19.98;9.10;;;;;;;;;;5019134;28;20278;-76
2023/12/09 12:08:01;;;;;;;24.00;9.00;;;;;;;;;;5037213;28;20072;-75
2023/12/09 12:10:26;;;;;;;17.83;8.50;;;;;;;;;;5037804;28;20416;-77
2023/12/09 12:12:51;;;;;;;12.82;6.20;;;;;;;;;;5037208;28;20037;-77
2023/12/09 12:15:17;;;;;;;17.92;8.93;;;;;;;;;;5037121;28;20127;-77
2023/12/09 12:17:42;;;;;;;20.70;7.75;;;;;;;;;;5036841;28;20544;-75
2023/12/09 12:20:10;;;;;;;21.35;8.73;;;;;;;;;;5037362;28;20123;-77
2023/12/09 12:22:35;;;;;;;20.02;8.60;;;;;;;;;;5037339;28;20029;-76
2023/12/09 12:25:01;;;;;;;21.73;8.32;;;;;;;;;;5036756;28;20044;-76
2023/12/09 12:27:26;;;;;;;20.63;9.20;;;;;;;;;;5036257;28;20025;-76
2023/12/09 12:29:51;;;;;;;19.05;8.77;;;;;;;;;;5035155;28;20064;-76
2023/12/09 12:32:17;;;;;;;17.98;8.15;;;;;;;;;;5034764;28;20469;-76
2023/12/09 12:34:44;;;;;;;20.38;9.18;;;;;;;;;;5018672;28;20116;-76
2023/12/09 12:37:09;;;;;;;22.85;8.90;;;;;;;;;;5022076;28;20396;-78
2023/12/09 12:39:35;;;;;;;16.05;7.78;;;;;;;;;;5040764;28;20018;-77
2023/12/09 12:42:00;;;;;;;21.33;9.05;;;;;;;;;;5039663;28;20026;-78
2023/12/09 12:44:25;;;;;;;19.05;8.80;;;;;;;;;;5036585;28;20025;-80
2023/12/09 12:46:51;;;;;;;25.77;9.32;;;;;;;;;;5040549;28;20467;-79
2023/12/09 12:49:16;;;;;;;17.80;7.85;;;;;;;;;;5040293;28;20022;-79
2023/12/09 12:51:41;;;;;;;15.23;6.73;;;;;;;;;;5039801;28;20036;-78
2023/12/09 12:54:06;;;;;;;19.38;7.05;;;;;;;;;;5041080;28;20302;-81
2023/12/09 12:56:31;;;;;;;15.05;7.15;;;;;;;;;;5042690;28;20026;-78
2023/12/09 12:58:57;;;;;;;16.95;7.38;;;;;;;;;;5044790;28;20090;-78
2023/12/09 13:01:22;;;;;;;23.15;7.32;;;;;;;;;;5047868;28;20029;-78
2023/12/09 13:03:48;;;;;;;16.60;7.13;;;;;;;;;;5047987;28;20027;-78
2023/12/09 13:06:13;;;;;;;15.30;7.00;;;;;;;;;;5048243;28;20255;-79
2023/12/09 13:08:39;;;;;;;14.52;6.30;;;;;;;;;;5030760;28;20031;-79
2023/12/09 13:11:05;;;;;;;13.73;6.70;;;;;;;;;;5031691;28;20049;-79
2023/12/09 13:13:30;;;;;;;15.25;6.53;;;;;;;;;;5031465;28;20049;-79
2023/12/09 13:15:56;;;;;;;15.60;6.43;;;;;;;;;;5048670;28;20024;-79
2023/12/09 13:18:22;;;;;;;14.77;6.15;;;;;;;;;;5049176;28;20259;-78
2023/12/09 13:20:49;;;;;;;11.43;5.70;;;;;;;;;;5030696;28;20103;-79
2023/12/09 13:23:15;;;;;;;11.35;5.85;;;;;;;;;;5030655;28;20025;-78
2023/12/09 13:25:40;;;;;;;10.57;6.00;;;;;;;;;;5030961;28;20030;-78
2023/12/09 13:28:06;;;;;;;13.73;6.13;;;;;;;;;;5047395;28;20273;-78
2023/12/09 13:30:31;;;;;;;9.23;4.80;;;;;;;;;;5047719;28;20033;-78
2023/12/09 13:33:00;;;;;;;11.25;5.82;;;;;;;;;;5030177;28;20033;-79
2023/12/09 13:35:30;;;;;;;8.80;4.93;;;;;;;;;;5047403;28;20068;-79
2023/12/09 13:37:56;;;;;;;8.80;4.50;;;;;;;;;;5048184;28;20028;-78
2023/12/09 13:40:21;;;;;;;14.57;6.43;;;;;;;;;;5046031;28;20025;-79
2023/12/09 13:42:48;;;;;;;11.48;5.80;;;;;;;;;;5030323;28;20092;-78
2023/12/09 13:45:14;;;;;;;12.80;6.25;;;;;;;;;;5048348;28;20025;-79
2023/12/09 13:47:39;;;;;;;5.60;3.33;;;;;;;;;;5048619;28;20025;-79
2023/12/09 13:50:07;;;;;;;10.48;4.97;;;;;;;;;;5048162;28;20040;-79
2023/12/09 13:52:33;;;;;;;12.80;5.15;;;;;;;;;;5049030;28;20044;-79
2023/12/09 13:54:59;;;;;;;11.15;5.25;;;;;;;;;;5047856;28;20022;-78
2023/12/09 13:57:24;;;;;;;12.73;5.65;;;;;;;;;;5048201;28;20108;-79
2023/12/09 13:59:49;;;;;;;10.65;5.43;;;;;;;;;;5028573;28;20017;-78
2023/12/09 14:02:15;;;;;;;12.77;5.85;;;;;;;;;;5039738;28;20032;-78
2023/12/09 14:04:40;;;;;;;17.27;6.57;;;;;;;;;;5056873;28;20013;-77
2023/12/09 14:07:05;;;;;;;20.35;8.65;;;;;;;;;;5050255;28;20026;-79
2023/12/09 14:09:31;;;;;;;15.68;7.22;;;;;;;;;;5030084;28;20049;-79
2023/12/09 14:11:56;;;;;;;17.43;7.73;;;;;;;;;;5048989;28;20083;-79
2023/12/09 14:14:22;;;;;;;16.27;8.32;;;;;;;;;;5046977;28;20279;-79